Time;durP1;ratioP1;P1;durP2;ratioP2;P2;SDS_P1;SDS_P2;PMS_P1;PMS_P2;Temp;Humidity;BMP_temperature;BMP_pressure;BME280_temperature;BME280_humidity;BME280_pressure;Samples;Min_cycle;Max_cycle;Signal;HPM_P1;HPM_P2
2022/12/28 00:02:51;;;;;;;11.27;5.90;;;8.60;78.60;;;;;;21263210;27;20060;-63
2022/12/28 00:12:53;;;;;;;13.43;6.75;;;8.50;77.90;;;;;;21264383;27;20047;-59
2022/12/28 00:22:54;;;;;;;18.30;8.07;;;8.30;78.40;;;;;;21262509;27;20093;-59
2022/12/28 00:32:57;;;;;;;10.93;6.72;;;8.30;78.30;;;;;;21260463;27;20476;-57
2022/12/28 00:42:59;;;;;;;14.77;7.50;;;8.30;77.80;;;;;;21259181;27;20054;-57
2022/12/28 00:53:01;;;;;;;13.23;8.40;;;8.20;78.00;;;;;;21258907;27;20157;-56
2022/12/28 01:03:04;;;;;;;15.43;8.70;;;8.10;78.00;;;;;;21257799;27;20043;-57
2022/12/28 01:13:05;;;;;;;14.48;7.85;;;8.00;78.30;;;;;;21258497;27;20493;-57
2022/12/28 01:23:08;;;;;;;15.18;8.13;;;7.90;78.30;;;;;;21257690;27;20065;-56
2022/12/28 01:33:10;;;;;;;13.85;7.85;;;7.90;78.70;;;;;;21239250;27;20491;-56
2022/12/28 01:43:15;;;;;;;16.02;7.50;;;8.00;78.70;;;;;;21267698;27;20102;-56
2022/12/28 01:53:18;;;;;;;12.48;7.88;;;8.00;78.80;;;;;;21284545;27;20043;-60
2022/12/28 02:03:26;;;;;;;11.73;7.13;;;7.80;78.30;;;;;;21246974;27;20068;-55
2022/12/28 02:13:28;;;;;;;11.13;6.65;;;7.70;78.10;;;;;;21250508;27;20051;-56
2022/12/28 02:23:56;;;;;;;10.33;7.00;;;7.60;77.50;;;;;;21250870;27;20047;-56
2022/12/28 02:34:30;;;;;;;15.38;7.13;;;7.30;78.00;;;;;;21251456;27;20181;-57
2022/12/28 03:37:48;;;;;;;12.75;8.82;;;7.00;78.70;;;;;;20838129;28;20426;-56
2022/12/28 03:47:53;;;;;;;13.48;8.38;;;7.00;77.40;;;;;;20987286;27;20051;-58
2022/12/28 03:57:56;;;;;;;19.13;8.68;;;6.80;77.30;;;;;;21263927;27;20039;-57
2022/12/28 04:07:58;;;;;;;9.63;7.55;;;6.70;77.30;;;;;;21245372;27;20051;-56
2022/12/28 04:18:03;;;;;;;18.00;9.33;;;6.60;77.80;;;;;;21262926;27;20130;-56
2022/12/28 04:28:06;;;;;;;15.30;8.20;;;6.50;78.50;;;;;;21262678;27;20509;-58
2022/12/28 04:38:10;;;;;;;11.90;8.55;;;6.50;78.60;;;;;;21260014;27;20415;-56
2022/12/28 04:48:26;;;;;;;;;;;6.40;78.50;;;;;;21244771;27;20407;-57
2022/12/28 04:58:48;;;;;;;9.32;7.35;;;6.30;78.20;;;;;;21259855;27;19919;-57
2022/12/28 05:09:09;;;;;;;11.20;8.05;;;6.30;77.50;;;;;;21257927;27;20059;-55
2022/12/28 05:19:30;;;;;;;12.88;7.97;;;;;;;;;;21259350;27;20039;-56
2022/12/28 05:29:36;;;;;;;14.63;8.60;;;;;;;;;;21256154;27;20088;-58
2022/12/28 05:39:39;;;;;;;14.25;8.48;;;;;;;;;;21256065;27;20054;-55
2022/12/28 05:49:42;;;;;;;14.35;8.98;;;;;;;;;;21253451;27;20068;-59
2022/12/28 05:59:44;;;;;;;13.27;9.10;;;;;;;;;;21252804;27;20039;-56
2022/12/28 06:09:46;;;;;;;14.60;8.60;;;;;;;;;;21251774;27;20136;-62
2022/12/28 06:19:49;;;;;;;15.68;9.02;;;;;;;;;;21251257;27;20082;-57
2022/12/28 06:29:51;;;;;;;15.13;8.38;;;;;;;;;;21250283;27;20086;-56
2022/12/28 06:39:54;;;;;;;14.55;9.35;;;;;;;;;;21250139;27;20042;-56
2022/12/28 06:49:56;;;;;;;12.27;8.05;;;;;;;;;;21232241;27;20570;-57
2022/12/28 06:59:58;;;;;;;15.00;10.60;;;;;;;;;;21229808;27;20088;-57
2022/12/28 07:10:00;;;;;;;14.50;8.38;;;;;;;;;;21249373;27;20051;-55
2022/12/28 07:20:03;;;;;;;14.55;8.38;;;;;;;;;;21230116;28;20054;-56
2022/12/28 07:30:05;;;;;;;15.80;7.78;;;;;;;;;;21248918;28;20047;-57
2022/12/28 07:40:07;;;;;;;13.90;8.93;;;;;;;;;;21229441;28;20406;-58
2022/12/28 07:50:09;;;;;;;13.30;9.00;;;;;;;;;;21229156;28;20078;-57
2022/12/28 08:00:11;;;;;;;13.15;8.45;;;;;;;;;;21228345;28;20062;-56
2022/12/28 08:10:14;;;;;;;15.45;9.45;;;;;;;;;;21247507;27;20047;-56
2022/12/28 08:20:16;;;;;;;16.98;9.70;;;;;;;;;;21262081;27;20483;-56
2022/12/28 08:30:18;;;;;;;14.30;9.25;;;;;;;;;;21241726;27;20055;-57
2022/12/28 08:40:21;;;;;;;20.35;11.65;;;;;;;;;;21259199;27;20418;-56
2022/12/28 08:50:23;;;;;;;19.60;9.30;;;;;;;;;;21258856;27;20043;-56
2022/12/28 09:00:25;;;;;;;18.38;10.38;;;;;;;;;;21256749;27;20082;-62
2022/12/28 09:10:27;;;;;;;19.80;11.00;;;;;;;;;;21256214;27;20173;-59
2022/12/28 09:20:29;;;;;;;19.58;9.98;;;;;;;;;;21256124;27;20039;-56
2022/12/28 09:30:31;;;;;;;22.48;11.45;;;;;;;;;;21255233;27;20051;-56
2022/12/28 09:40:34;;;;;;;18.95;11.05;;;;;;;;;;21255386;27;20503;-57
2022/12/28 09:50:36;;;;;;;25.05;14.15;;;;;;;;;;21254776;27;20548;-61
2022/12/28 10:00:41;;;;;;;21.90;13.00;;;;;;;;;;21254066;27;20508;-57
2022/12/28 10:10:43;;;;;;;17.53;13.20;;;;;;;;;;21252835;27;20063;-57
2022/12/28 10:20:45;;;;;;;30.45;19.75;;;;;;;;;;21252540;27;20054;-61
2022/12/28 10:31:01;;;;;;;16.50;11.48;;;;;;;;;;21250136;27;20047;-56
2022/12/28 10:41:03;;;;;;;28.08;12.48;;;;;;;;;;21249293;27;20043;-57
2022/12/28 10:51:16;;;;;;;18.95;11.73;;;;;;;;;;21249400;27;20111;-57
2022/12/28 11:01:27;;;;;;;21.48;12.52;;;;;;;;;;21249448;27;20054;-57
2022/12/28 11:11:29;;;;;;;33.70;13.95;;;;;;;;;;21247748;27;20043;-56
2022/12/28 11:21:33;;;;;;;23.65;14.93;;;;;;;;;;21246905;27;20053;-57
2022/12/28 11:31:38;;;;;;;25.02;15.02;;;;;;;;;;21247897;28;20047;-61
2022/12/28 11:41:41;;;;;;;22.57;13.80;;;;;;;;;;21246621;28;20062;-56
2022/12/28 11:51:43;;;;;;;26.52;15.82;;;;;;;;;;21258502;27;20139;-57
2022/12/28 12:01:45;;;;;;;23.70;15.00;;;;;;;;;;21263288;27;20047;-60
2022/12/28 12:11:48;;;;;;;25.52;15.60;;;;;;;;;;21263069;27;20079;-58
2022/12/28 12:21:58;;;;;;;25.65;16.58;;;;;;;;;;21261963;27;20043;-56
2022/12/28 12:32:03;;;;;;;27.15;17.58;;;;;;;;;;21262900;27;20078;-57
2022/12/28 12:42:14;;;;;;;25.20;17.43;;;;;;;;;;21268529;27;20043;-57
2022/12/28 12:52:16;;;;;;;26.73;17.08;;;;;;;;;;21267918;27;20058;-57
2022/12/28 13:02:35;;;;;;;28.55;17.77;;;;;;;;;;21274232;27;20050;-56
2022/12/28 13:12:37;;;;;;;22.38;16.67;;;;;;;;;;21258700;27;20051;-58
2022/12/28 13:22:41;;;;;;;24.50;13.85;;;;;;;;;;21256509;27;20449;-58
2022/12/28 13:32:50;;;;;;;22.97;13.13;;;;;;;;;;21236156;27;20081;-56
2022/12/28 13:42:59;;;;;;;27.38;15.80;;;;;;;;;;21255065;27;20484;-56
2022/12/28 13:53:08;;;;;;;25.08;15.13;;;;;;;;;;21254577;27;20047;-58
2022/12/28 14:03:11;;;;;;;14.85;7.93;;;;;;;;;;21254747;27;20102;-56
2022/12/28 14:13:13;;;;;;;14.90;7.30;;;;;;;;;;21251836;27;20104;-57
2022/12/28 14:23:19;;;;;;;14.25;7.38;;;;;;;;;;21251645;27;20054;-58
2022/12/28 14:33:22;;;;;;;16.17;6.90;;;;;;;;;;21250874;27;20047;-57
2022/12/28 14:43:26;;;;;;;20.15;10.68;;;;;;;;;;21250273;27;20479;-57
2022/12/28 14:53:28;;;;;;;10.70;6.35;;;;;;;;;;21249391;27;20082;-58
2022/12/28 15:03:31;;;;;;;13.77;7.00;;;;;;;;;;21248474;27;20051;-57
2022/12/28 15:13:32;;;;;;;14.40;7.43;;;;;;;;;;21248235;27;20090;-56
2022/12/28 15:23:35;;;;;;;11.32;5.95;;;;;;;;;;21248336;27;20396;-58
2022/12/28 15:33:36;;;;;;;12.52;6.85;;;;;;;;;;21247061;28;20074;-62
2022/12/28 15:43:38;;;;;;;10.00;5.13;;;;;;;;;;21246498;28;20544;-57
2022/12/28 15:53:40;;;;;;;10.15;4.47;;;;;;;;;;21229760;28;20499;-58
2022/12/28 16:03:42;;;;;;;10.30;3.67;;;;;;;;;;21245828;28;20055;-60
2022/12/28 16:13:50;;;;;;;7.63;3.15;;;;;;;;;;21245714;28;20443;-58
2022/12/28 16:23:52;;;;;;;4.53;2.58;;;;;;;;;;21245642;28;20452;-65
2022/12/28 16:33:54;;;;;;;16.15;6.43;;;;;;;;;;21250205;27;20053;-61
2022/12/28 16:44:00;;;;;;;10.20;2.83;;;;;;;;;;21270263;27;20053;-64
2022/12/28 16:54:02;;;;;;;8.82;3.10;;;;;;;;;;21242078;27;20611;-61
2022/12/28 17:04:05;;;;;;;10.77;3.55;;;;;;;;;;21260703;27;20075;-63
2022/12/28 17:14:09;;;;;;;8.60;3.38;;;;;;;;;;21256543;27;20080;-64
2022/12/28 17:24:12;;;;;;;8.55;3.83;;;;;;;;;;21239655;27;20039;-68
2022/12/28 17:34:14;;;;;;;9.63;4.88;;;;;;;;;;21256160;27;20133;-69
2022/12/28 17:44:16;;;;;;;12.18;4.70;;;;;;;;;;21255320;27;20047;-66
2022/12/28 17:54:18;;;;;;;9.57;4.90;;;;;;;;;;21255380;27;20425;-61
2022/12/28 18:04:20;;;;;;;16.67;8.35;;;;;;;;;;21253806;27;20058;-69
2022/12/28 18:14:22;;;;;;;9.68;6.05;;;;;;;;;;21253286;27;20136;-69
2022/12/28 18:24:25;;;;;;;14.77;6.97;;;;;;;;;;21233093;27;20039;-65
2022/12/28 18:34:27;;;;;;;16.02;8.43;;;;;;;;;;21250940;27;20048;-63
2022/12/28 18:44:29;;;;;;;12.75;7.30;;;;;;;;;;21249419;27;20095;-66
2022/12/28 18:54:31;;;;;;;14.52;5.70;;;;;;;;;;21249046;27;20388;-62
2022/12/28 19:04:33;;;;;;;9.20;5.18;;;;;;;;;;21248933;27;20039;-62
2022/12/28 19:14:35;;;;;;;10.85;5.80;;;;;;;;;;21248649;27;20047;-62
2022/12/28 19:24:37;;;;;;;9.70;3.83;;;;;;;;;;21247931;27;20055;-66
2022/12/28 19:34:39;;;;;;;6.78;4.10;;;;;;;;;;21249454;28;20047;-62
2022/12/28 19:44:41;;;;;;;7.78;3.75;;;;;;;;;;21247458;28;20122;-64
2022/12/28 19:54:43;;;;;;;7.15;3.63;;;;;;;;;;21247530;28;20134;-64
2022/12/28 20:04:45;;;;;;;10.88;4.80;;;;;;;;;;21247237;28;20055;-63
2022/12/28 20:14:48;;;;;;;11.15;5.43;;;;;;;;;;21260695;27;20533;-64
2022/12/28 20:24:50;;;;;;;14.80;6.72;;;;;;;;;;21262489;27;20075;-63
2022/12/28 20:34:51;;;;;;;12.15;5.38;;;;;;;;;;21260745;27;20065;-63
2022/12/28 20:44:57;;;;;;;11.20;5.28;;;;;;;;;;21260106;27;20043;-65
2022/12/28 20:54:59;;;;;;;10.52;4.20;;;;;;;;;;21239807;27;20448;-63
2022/12/28 21:05:02;;;;;;;12.77;5.03;;;;;;;;;;21257800;27;20047;-64
2022/12/28 21:15:04;;;;;;;14.77;6.68;;;;;;;;;;21257694;27;20050;-64
2022/12/28 21:25:10;;;;;;;10.50;6.63;;;;;;;;;;21239071;27;20050;-64
2022/12/28 21:35:12;;;;;;;13.70;6.70;;;;;;;;;;21257001;27;20093;-65
2022/12/28 21:45:15;;;;;;;17.67;9.40;;;;;;;;;;21257011;27;20486;-63
2022/12/28 22:16:02;;;;;;;16.60;9.48;;;;;;;;;;21275902;27;20043;-63
2022/12/28 22:26:07;;;;;;;21.65;9.63;;;;;;;;;;21281348;27;20047;-61
2022/12/28 22:36:13;;;;;;;16.45;7.70;;;;;;;;;;21262368;27;20138;-64
2022/12/28 22:46:15;;;;;;;15.45;7.65;;;;;;;;;;21250549;27;20437;-63
2022/12/28 22:56:19;;;;;;;12.70;6.72;;;;;;;;;;21231594;27;20096;-63
2022/12/28 23:06:21;;;;;;;12.60;8.55;;;;;;;;;;21250567;27;20044;-65
2022/12/28 23:16:23;;;;;;;9.10;5.03;;;;;;;;;;21231630;27;20051;-64
2022/12/28 23:36:46;;;;;;;9.45;3.60;;;;;;;;;;21249255;28;20089;-63
2022/12/28 23:46:49;;;;;;;7.15;3.83;;;;;;;;;;21258198;27;20043;-62
2022/12/28 23:56:51;;;;;;;8.30;4.05;;;;;;;;;;21264768;27;20479;-61
